sensor_id;sensor_type;location;lat;lon;timestamp;pressure;altitude;pressure_sealevel;temperature;humidity
71151;BME280;59071;42.138;24.768;2024-03-08T00:00:02;99854.44;;;7.12;94.32
71151;BME280;59071;42.138;24.768;2024-03-08T00:02:40;99852.22;;;7.16;94.16
71151;BME280;59071;42.138;24.768;2024-03-08T00:05:06;99843.66;;;7.14;94.22
71151;BME280;59071;42.138;24.768;2024-03-08T00:07:36;99845.97;;;6.94;94.83
71151;BME280;59071;42.138;24.768;2024-03-08T00:10:06;99845.22;;;7.23;93.90
71151;BME280;59071;42.138;24.768;2024-03-08T00:12:36;99835.28;;;7.10;93.13
71151;BME280;59071;42.138;24.768;2024-03-08T00:15:01;99842.09;;;7.42;93.12
71151;BME280;59071;42.138;24.768;2024-03-08T00:17:27;99840.63;;;7.55;92.18
71151;BME280;59071;42.138;24.768;2024-03-08T00:19:52;99839.34;;;7.36;92.67
71151;BME280;59071;42.138;24.768;2024-03-08T00:22:18;99835.41;;;7.32;92.20
71151;BME280;59071;42.138;24.768;2024-03-08T00:24:43;99834.19;;;7.19;92.91
71151;BME280;59071;42.138;24.768;2024-03-08T00:27:09;99842.09;;;7.04;92.90
71151;BME280;59071;42.138;24.768;2024-03-08T00:29:35;99828.91;;;6.96;94.48
71151;BME280;59071;42.138;24.768;2024-03-08T00:32:00;99842.09;;;7.04;94.51
71151;BME280;59071;42.138;24.768;2024-03-08T00:34:26;99834.72;;;7.15;93.21
71151;BME280;59071;42.138;24.768;2024-03-08T00:36:51;99835.16;;;7.03;93.66
71151;BME280;59071;42.138;24.768;2024-03-08T00:39:18;99837.28;;;6.85;94.90
71151;BME280;59071;42.138;24.768;2024-03-08T00:41:45;99836.44;;;7.08;94.08
71151;BME280;59071;42.138;24.768;2024-03-08T00:44:10;99843.84;;;7.12;93.50
71151;BME280;59071;42.138;24.768;2024-03-08T00:46:36;99849.72;;;7.22;92.42
71151;BME280;59071;42.138;24.768;2024-03-08T00:49:01;99841.50;;;7.32;92.06
71151;BME280;59071;42.138;24.768;2024-03-08T00:51:26;99840.88;;;7.30;92.05
71151;BME280;59071;42.138;24.768;2024-03-08T00:53:52;99839.25;;;7.44;91.13
71151;BME280;59071;42.138;24.768;2024-03-08T00:56:17;99835.91;;;7.50;91.16
71151;BME280;59071;42.138;24.768;2024-03-08T00:58:42;99832.56;;;6.95;92.77
71151;BME280;59071;42.138;24.768;2024-03-08T01:01:08;99831.44;;;7.13;93.57
71151;BME280;59071;42.138;24.768;2024-03-08T01:03:35;99821.19;;;7.10;92.56
71151;BME280;59071;42.138;24.768;2024-03-08T01:06:01;99822.72;;;7.04;93.25
71151;BME280;59071;42.138;24.768;2024-03-08T01:08:26;99834.44;;;7.10;92.25
71151;BME280;59071;42.138;24.768;2024-03-08T01:10:52;99819.88;;;6.91;92.87
71151;BME280;59071;42.138;24.768;2024-03-08T01:13:18;99822.88;;;6.88;94.36
71151;BME280;59071;42.138;24.768;2024-03-08T01:15:44;99832.25;;;7.13;93.09
71151;BME280;59071;42.138;24.768;2024-03-08T01:18:10;99828.16;;;7.11;92.72
71151;BME280;59071;42.138;24.768;2024-03-08T01:20:35;99823.13;;;7.16;93.35
71151;BME280;59071;42.138;24.768;2024-03-08T01:23:01;99822.13;;;7.17;92.65
71151;BME280;59071;42.138;24.768;2024-03-08T01:25:26;99821.44;;;7.00;92.84
71151;BME280;59071;42.138;24.768;2024-03-08T01:27:52;99831.94;;;7.31;92.54
71151;BME280;59071;42.138;24.768;2024-03-08T01:30:19;99830.84;;;7.40;92.07
71151;BME280;59071;42.138;24.768;2024-03-08T01:32:44;99834.66;;;7.23;91.38
71151;BME280;59071;42.138;24.768;2024-03-08T01:35:10;99831.00;;;7.24;91.93
71151;BME280;59071;42.138;24.768;2024-03-08T01:37:36;99833.78;;;7.08;92.47
71151;BME280;59071;42.138;24.768;2024-03-08T01:40:01;99836.72;;;7.13;92.47
71151;BME280;59071;42.138;24.768;2024-03-08T01:42:28;99841.84;;;7.14;92.67
71151;BME280;59071;42.138;24.768;2024-03-08T01:44:53;99828.22;;;6.79;93.94
71151;BME280;59071;42.138;24.768;2024-03-08T01:47:19;99834.75;;;6.92;93.77
71151;BME280;59071;42.138;24.768;2024-03-08T01:49:50;99840.78;;;7.00;93.28
71151;BME280;59071;42.138;24.768;2024-03-08T01:52:16;99848.50;;;6.87;95.25
71151;BME280;59071;42.138;24.768;2024-03-08T01:54:44;99840.94;;;7.22;93.12
71151;BME280;59071;42.138;24.768;2024-03-08T01:57:10;99837.50;;;7.36;92.43
71151;BME280;59071;42.138;24.768;2024-03-08T01:59:36;99840.66;;;7.17;93.12
71151;BME280;59071;42.138;24.768;2024-03-08T02:02:02;99827.09;;;7.35;92.80
71151;BME280;59071;42.138;24.768;2024-03-08T02:04:29;99836.38;;;7.31;92.84
71151;BME280;59071;42.138;24.768;2024-03-08T02:06:56;99837.31;;;7.38;91.76
71151;BME280;59071;42.138;24.768;2024-03-08T02:09:23;99834.19;;;7.19;91.34
71151;BME280;59071;42.138;24.768;2024-03-08T02:11:50;99834.38;;;7.33;91.04
71151;BME280;59071;42.138;24.768;2024-03-08T02:14:15;99835.31;;;7.40;90.76
71151;BME280;59071;42.138;24.768;2024-03-08T02:16:40;99837.88;;;7.33;91.00
71151;BME280;59071;42.138;24.768;2024-03-08T02:19:06;99838.66;;;7.19;91.92
71151;BME280;59071;42.138;24.768;2024-03-08T02:21:35;99843.38;;;7.09;91.66
71151;BME280;59071;42.138;24.768;2024-03-08T02:24:00;99835.84;;;7.20;91.77
71151;BME280;59071;42.138;24.768;2024-03-08T02:26:26;99847.91;;;7.00;93.22
71151;BME280;59071;42.138;24.768;2024-03-08T02:28:51;99836.44;;;7.08;92.80
71151;BME280;59071;42.138;24.768;2024-03-08T02:31:16;99844.69;;;6.90;93.41
71151;BME280;59071;42.138;24.768;2024-03-08T02:33:41;99835.31;;;7.02;92.55
71151;BME280;59071;42.138;24.768;2024-03-08T02:36:07;99831.72;;;6.95;93.02
71151;BME280;59071;42.138;24.768;2024-03-08T02:38:32;99847.03;;;7.08;92.68
71151;BME280;59071;42.138;24.768;2024-03-08T02:40:58;99843.38;;;7.09;92.56
71151;BME280;59071;42.138;24.768;2024-03-08T02:43:23;99840.84;;;7.15;93.02
71151;BME280;59071;42.138;24.768;2024-03-08T02:45:50;99845.19;;;7.31;91.85
71151;BME280;59071;42.138;24.768;2024-03-08T02:48:15;99846.94;;;7.16;91.63
71151;BME280;59071;42.138;24.768;2024-03-08T02:50:41;99848.56;;;7.02;93.49
71151;BME280;59071;42.138;24.768;2024-03-08T02:53:11;99855.50;;;6.80;94.65
71151;BME280;59071;42.138;24.768;2024-03-08T02:55:37;99851.84;;;6.81;95.46
71151;BME280;59071;42.138;24.768;2024-03-08T02:58:03;99853.06;;;6.47;97.61
71151;BME280;59071;42.138;24.768;2024-03-08T03:00:29;99852.91;;;6.72;96.71
71151;BME280;59071;42.138;24.768;2024-03-08T03:02:56;99848.31;;;6.65;96.90
71151;BME280;59071;42.138;24.768;2024-03-08T03:05:23;99846.94;;;6.78;97.40
71151;BME280;59071;42.138;24.768;2024-03-08T03:07:49;99845.16;;;6.70;97.69
71151;BME280;59071;42.138;24.768;2024-03-08T03:10:17;99846.78;;;6.48;98.80
71151;BME280;59071;42.138;24.768;2024-03-08T03:12:43;99848.72;;;6.23;100.00
71151;BME280;59071;42.138;24.768;2024-03-08T03:15:08;99855.34;;;6.50;100.00
71151;BME280;59071;42.138;24.768;2024-03-08T03:17:35;99851.75;;;6.43;100.00
71151;BME280;59071;42.138;24.768;2024-03-08T03:20:00;99853.34;;;6.52;100.00
71151;BME280;59071;42.138;24.768;2024-03-08T03:22:34;99851.09;;;6.41;100.00
71151;BME280;59071;42.138;24.768;2024-03-08T03:25:00;99863.19;;;6.35;100.00
71151;BME280;59071;42.138;24.768;2024-03-08T03:27:27;99864.28;;;6.49;100.00
71151;BME280;59071;42.138;24.768;2024-03-08T03:29:53;99862.91;;;6.61;100.00
71151;BME280;59071;42.138;24.768;2024-03-08T03:32:18;99870.69;;;6.55;100.00
71151;BME280;59071;42.138;24.768;2024-03-08T03:34:44;99867.50;;;6.36;100.00
71151;BME280;59071;42.138;24.768;2024-03-08T03:37:09;99874.28;;;6.62;100.00
71151;BME280;59071;42.138;24.768;2024-03-08T03:39:39;99863.38;;;6.65;100.00
71151;BME280;59071;42.138;24.768;2024-03-08T03:42:17;99863.22;;;6.58;100.00
71151;BME280;59071;42.138;24.768;2024-03-08T03:44:46;99870.91;;;6.45;100.00
71151;BME280;59071;42.138;24.768;2024-03-08T03:47:12;99874.13;;;6.32;100.00
71151;BME280;59071;42.138;24.768;2024-03-08T03:49:38;99870.25;;;6.51;100.00
71151;BME280;59071;42.138;24.768;2024-03-08T03:52:04;99862.31;;;6.43;100.00
71151;BME280;59071;42.138;24.768;2024-03-08T03:54:30;99872.09;;;6.42;100.00
71151;BME280;59071;42.138;24.768;2024-03-08T03:56:56;99875.81;;;7.02;100.00
71151;BME280;59071;42.138;24.768;2024-03-08T03:59:21;99884.47;;;7.42;100.00
71151;BME280;59071;42.138;24.768;2024-03-08T04:01:47;99880.66;;;7.22;99.12
71151;BME280;59071;42.138;24.768;2024-03-08T04:04:12;99865.06;;;6.81;98.67
71151;BME280;59071;42.138;24.768;2024-03-08T04:06:38;99885.09;;;6.52;100.00
71151;BME280;59071;42.138;24.768;2024-03-08T04:09:03;99876.81;;;6.55;100.00
71151;BME280;59071;42.138;24.768;2024-03-08T04:11:30;99870.34;;;6.26;100.00
71151;BME280;59071;42.138;24.768;2024-03-08T04:13:55;99877.69;;;6.48;100.00
71151;BME280;59071;42.138;24.768;2024-03-08T04:16:21;99881.66;;;6.43;100.00
71151;BME280;59071;42.138;24.768;2024-03-08T04:18:46;99886.34;;;6.33;100.00
71151;BME280;59071;42.138;24.768;2024-03-08T04:21:12;99885.38;;;6.26;100.00
71151;BME280;59071;42.138;24.768;2024-03-08T04:23:38;99888.22;;;6.16;100.00
71151;BME280;59071;42.138;24.768;2024-03-08T04:26:03;99876.16;;;6.22;100.00
71151;BME280;59071;42.138;24.768;2024-03-08T04:28:31;99880.72;;;5.88;100.00
71151;BME280;59071;42.138;24.768;2024-03-08T04:30:56;99865.38;;;5.76;100.00
71151;BME280;59071;42.138;24.768;2024-03-08T04:33:22;99888.59;;;6.05;100.00
71151;BME280;59071;42.138;24.768;2024-03-08T04:35:49;99901.47;;;5.92;100.00
71151;BME280;59071;42.138;24.768;2024-03-08T04:38:14;99896.44;;;5.65;100.00
71151;BME280;59071;42.138;24.768;2024-03-08T04:40:40;99891.91;;;6.46;100.00
71151;BME280;59071;42.138;24.768;2024-03-08T04:43:06;99889.78;;;6.42;100.00
71151;BME280;59071;42.138;24.768;2024-03-08T04:45:33;99891.31;;;6.28;100.00
71151;BME280;59071;42.138;24.768;2024-03-08T04:47:58;99892.81;;;6.31;99.46
71151;BME280;59071;42.138;24.768;2024-03-08T04:50:24;99898.13;;;6.14;100.00
71151;BME280;59071;42.138;24.768;2024-03-08T04:52:49;99898.13;;;6.14;100.00
71151;BME280;59071;42.138;24.768;2024-03-08T04:55:15;99886.00;;;5.97;99.62
71151;BME280;59071;42.138;24.768;2024-03-08T04:57:40;99902.50;;;5.74;100.00
71151;BME280;59071;42.138;24.768;2024-03-08T05:00:07;99912.13;;;6.62;100.00
71151;BME280;59071;42.138;24.768;2024-03-08T05:02:38;99903.59;;;6.21;100.00
71151;BME280;59071;42.138;24.768;2024-03-08T05:05:07;99914.03;;;5.90;100.00
71151;BME280;59071;42.138;24.768;2024-03-08T05:07:34;99912.88;;;5.84;100.00
71151;BME280;59071;42.138;24.768;2024-03-08T05:10:00;99909.94;;;5.79;100.00
71151;BME280;59071;42.138;24.768;2024-03-08T05:12:27;99911.09;;;5.76;100.00
71151;BME280;59071;42.138;24.768;2024-03-08T05:14:52;99905.63;;;5.94;100.00
71151;BME280;59071;42.138;24.768;2024-03-08T05:17:19;99916.22;;;5.70;100.00
71151;BME280;59071;42.138;24.768;2024-03-08T05:19:44;99895.59;;;5.73;100.00
71151;BME280;59071;42.138;24.768;2024-03-08T05:22:09;99925.09;;;5.93;100.00
71151;BME280;59071;42.138;24.768;2024-03-08T05:24:35;99920.81;;;5.92;100.00
71151;BME280;59071;42.138;24.768;2024-03-08T05:27:00;99924.28;;;5.84;100.00
71151;BME280;59071;42.138;24.768;2024-03-08T05:29:26;99926.75;;;5.86;100.00
71151;BME280;59071;42.138;24.768;2024-03-08T05:31:52;99930.91;;;5.97;100.00
71151;BME280;59071;42.138;24.768;2024-03-08T05:34:18;99935.66;;;5.93;100.00
71151;BME280;59071;42.138;24.768;2024-03-08T05:36:45;99929.38;;;5.86;100.00
71151;BME280;59071;42.138;24.768;2024-03-08T05:39:15;99940.94;;;6.01;100.00
71151;BME280;59071;42.138;24.768;2024-03-08T05:41:41;99944.25;;;5.95;100.00
71151;BME280;59071;42.138;24.768;2024-03-08T05:44:07;99951.03;;;6.06;100.00
71151;BME280;59071;42.138;24.768;2024-03-08T05:46:32;99951.53;;;5.85;99.72
71151;BME280;59071;42.138;24.768;2024-03-08T05:48:58;99953.19;;;6.02;100.00
71151;BME280;59071;42.138;24.768;2024-03-08T05:51:30;99956.16;;;6.07;100.00
71151;BME280;59071;42.138;24.768;2024-03-08T05:53:55;99951.28;;;6.28;99.70
71151;BME280;59071;42.138;24.768;2024-03-08T05:56:22;99961.44;;;6.47;98.24
71151;BME280;59071;42.138;24.768;2024-03-08T05:58:48;99963.53;;;6.29;99.08
71151;BME280;59071;42.138;24.768;2024-03-08T06:01:15;99965.50;;;6.18;98.63
71151;BME280;59071;42.138;24.768;2024-03-08T06:03:41;99961.44;;;5.99;99.67
71151;BME280;59071;42.138;24.768;2024-03-08T06:06:12;99963.34;;;6.22;99.92
71151;BME280;59071;42.138;24.768;2024-03-08T06:08:38;99970.50;;;5.88;98.91
71151;BME280;59071;42.138;24.768;2024-03-08T06:11:03;99971.16;;;6.07;100.00
71151;BME280;59071;42.138;24.768;2024-03-08T06:13:31;99976.94;;;6.19;99.79
71151;BME280;59071;42.138;24.768;2024-03-08T06:15:56;99970.97;;;6.17;98.62
71151;BME280;59071;42.138;24.768;2024-03-08T06:18:22;99974.38;;;6.34;98.86
71151;BME280;59071;42.138;24.768;2024-03-08T06:20:47;99980.69;;;6.33;98.11
71151;BME280;59071;42.138;24.768;2024-03-08T06:23:13;99980.41;;;6.11;99.97
71151;BME280;59071;42.138;24.768;2024-03-08T06:25:43;99986.34;;;6.13;100.00
71151;BME280;59071;42.138;24.768;2024-03-08T06:28:08;99983.66;;;6.30;100.00
71151;BME280;59071;42.138;24.768;2024-03-08T06:30:34;99990.78;;;6.13;99.22
71151;BME280;59071;42.138;24.768;2024-03-08T06:33:00;99987.34;;;6.12;100.00
71151;BME280;59071;42.138;24.768;2024-03-08T06:35:25;99991.81;;;6.12;99.10
71151;BME280;59071;42.138;24.768;2024-03-08T06:37:50;99988.47;;;6.18;99.35
71151;BME280;59071;42.138;24.768;2024-03-08T06:40:16;99991.63;;;6.21;99.95
71151;BME280;59071;42.138;24.768;2024-03-08T06:42:41;99994.19;;;6.46;99.38
71151;BME280;59071;42.138;24.768;2024-03-08T06:45:07;100000.88;;;7.04;97.34
71151;BME280;59071;42.138;24.768;2024-03-08T06:47:34;99993.59;;;7.53;94.69
71151;BME280;59071;42.138;24.768;2024-03-08T06:49:59;100003.53;;;7.74;92.45
71151;BME280;59071;42.138;24.768;2024-03-08T06:52:25;100003.19;;;7.92;92.03
71151;BME280;59071;42.138;24.768;2024-03-08T06:54:50;100002.97;;;8.31;87.86
71151;BME280;59071;42.138;24.768;2024-03-08T06:57:17;100003.06;;;8.23;87.17
71151;BME280;59071;42.138;24.768;2024-03-08T06:59:43;100007.50;;;7.93;88.98
71151;BME280;59071;42.138;24.768;2024-03-08T07:02:09;100012.00;;;8.07;88.20
71151;BME280;59071;42.138;24.768;2024-03-08T07:04:35;100008.16;;;7.95;88.05
71151;BME280;59071;42.138;24.768;2024-03-08T07:07:04;100005.56;;;8.54;86.47
71151;BME280;59071;42.138;24.768;2024-03-08T07:09:29;100009.53;;;8.06;88.33
71151;BME280;59071;42.138;24.768;2024-03-08T07:11:55;100013.56;;;8.01;88.20
71151;BME280;59071;42.138;24.768;2024-03-08T07:14:22;100007.28;;;8.17;87.29
71151;BME280;59071;42.138;24.768;2024-03-08T07:16:47;100003.69;;;8.10;86.33
71151;BME280;59071;42.138;24.768;2024-03-08T07:19:13;100020.25;;;7.74;87.77
71151;BME280;59071;42.138;24.768;2024-03-08T07:21:38;100016.00;;;7.88;87.61
71151;BME280;59071;42.138;24.768;2024-03-08T07:24:04;100016.75;;;7.97;88.18
71151;BME280;59071;42.138;24.768;2024-03-08T07:26:46;100009.38;;;7.84;87.20
71151;BME280;59071;42.138;24.768;2024-03-08T07:29:15;100020.53;;;7.79;86.84
71151;BME280;59071;42.138;24.768;2024-03-08T07:31:40;100019.72;;;7.94;85.99
71151;BME280;59071;42.138;24.768;2024-03-08T07:34:06;100029.53;;;7.93;85.82
71151;BME280;59071;42.138;24.768;2024-03-08T07:36:33;100027.84;;;8.15;84.81
71151;BME280;59071;42.138;24.768;2024-03-08T07:38:59;100025.94;;;8.39;83.86
71151;BME280;59071;42.138;24.768;2024-03-08T07:41:24;100017.97;;;8.24;84.49
71151;BME280;59071;42.138;24.768;2024-03-08T07:43:49;100030.63;;;8.52;83.57
71151;BME280;59071;42.138;24.768;2024-03-08T07:46:14;100038.69;;;8.44;81.97
71151;BME280;59071;42.138;24.768;2024-03-08T07:48:40;100025.66;;;8.19;83.76
71151;BME280;59071;42.138;24.768;2024-03-08T07:51:05;100035.97;;;8.14;82.75
71151;BME280;59071;42.138;24.768;2024-03-08T07:53:31;100031.84;;;7.73;85.69
71151;BME280;59071;42.138;24.768;2024-03-08T07:55:56;100027.34;;;7.97;84.56
71151;BME280;59071;42.138;24.768;2024-03-08T07:58:22;100033.56;;;7.66;84.71
71151;BME280;59071;42.138;24.768;2024-03-08T08:00:48;100020.56;;;7.56;85.93
71151;BME280;59071;42.138;24.768;2024-03-08T08:03:14;100026.03;;;7.32;87.24
71151;BME280;59071;42.138;24.768;2024-03-08T08:05:41;100030.31;;;7.79;86.90
71151;BME280;59071;42.138;24.768;2024-03-08T08:08:08;100032.53;;;7.67;85.50
71151;BME280;59071;42.138;24.768;2024-03-08T08:10:35;100040.06;;;8.01;84.61
71151;BME280;59071;42.138;24.768;2024-03-08T08:13:01;100031.31;;;8.16;83.34
71151;BME280;59071;42.138;24.768;2024-03-08T08:15:29;100041.22;;;7.99;85.73
71151;BME280;59071;42.138;24.768;2024-03-08T08:17:54;100038.63;;;8.29;82.99
71151;BME280;59071;42.138;24.768;2024-03-08T08:20:20;100046.50;;;8.96;80.71
71151;BME280;59071;42.138;24.768;2024-03-08T08:22:47;100048.66;;;8.71;79.17
71151;BME280;59071;42.138;24.768;2024-03-08T08:25:13;100050.31;;;8.72;79.55
71151;BME280;59071;42.138;24.768;2024-03-08T08:27:40;100054.41;;;8.75;78.76
71151;BME280;59071;42.138;24.768;2024-03-08T08:30:08;100049.94;;;8.60;78.99
71151;BME280;59071;42.138;24.768;2024-03-08T08:32:37;100052.97;;;8.87;79.23
71151;BME280;59071;42.138;24.768;2024-03-08T08:35:06;100048.19;;;8.00;81.78
71151;BME280;59071;42.138;24.768;2024-03-08T08:37:32;100051.97;;;8.20;81.89
71151;BME280;59071;42.138;24.768;2024-03-08T08:40:01;100055.78;;;8.03;83.44
71151;BME280;59071;42.138;24.768;2024-03-08T08:42:30;100050.31;;;8.87;80.68
71151;BME280;59071;42.138;24.768;2024-03-08T08:44:55;100050.72;;;9.06;79.85
71151;BME280;59071;42.138;24.768;2024-03-08T08:47:22;100016.50;;;8.21;82.66
71151;BME280;59071;42.138;24.768;2024-03-08T08:49:48;100048.13;;;8.08;82.23
71151;BME280;59071;42.138;24.768;2024-03-08T08:52:15;100049.91;;;7.93;82.84
71151;BME280;59071;42.138;24.768;2024-03-08T08:54:42;100046.19;;;8.55;81.12
71151;BME280;59071;42.138;24.768;2024-03-08T08:57:07;100047.47;;;8.06;82.15
71151;BME280;59071;42.138;24.768;2024-03-08T08:59:36;100049.25;;;8.29;82.75
71151;BME280;59071;42.138;24.768;2024-03-08T09:02:02;100045.22;;;8.33;80.46
71151;BME280;59071;42.138;24.768;2024-03-08T09:04:29;100051.84;;;7.99;82.53
71151;BME280;59071;42.138;24.768;2024-03-08T09:06:54;100046.94;;;7.88;84.41
71151;BME280;59071;42.138;24.768;2024-03-08T09:09:20;100041.25;;;8.14;82.82
71151;BME280;59071;42.138;24.768;2024-03-08T09:11:47;100054.56;;;8.29;83.84
71151;BME280;59071;42.138;24.768;2024-03-08T09:14:12;100053.03;;;7.96;82.49
71151;BME280;59071;42.138;24.768;2024-03-08T09:16:37;100049.78;;;8.09;80.45
71151;BME280;59071;42.138;24.768;2024-03-08T09:19:03;100044.66;;;8.08;81.90
71151;BME280;59071;42.138;24.768;2024-03-08T09:21:28;100036.81;;;8.29;81.28
71151;BME280;59071;42.138;24.768;2024-03-08T09:23:53;100038.41;;;8.53;80.54
71151;BME280;59071;42.138;24.768;2024-03-08T09:26:19;100038.47;;;8.45;80.60
71151;BME280;59071;42.138;24.768;2024-03-08T09:28:45;100048.84;;;8.55;80.05
71151;BME280;59071;42.138;24.768;2024-03-08T09:31:11;100048.53;;;8.35;83.04
71151;BME280;59071;42.138;24.768;2024-03-08T09:33:36;100049.00;;;8.83;80.07
71151;BME280;59071;42.138;24.768;2024-03-08T09:36:02;100051.81;;;9.11;78.47
71151;BME280;59071;42.138;24.768;2024-03-08T09:38:29;100052.19;;;9.08;77.43
71151;BME280;59071;42.138;24.768;2024-03-08T09:40:54;100051.00;;;8.96;79.51
71151;BME280;59071;42.138;24.768;2024-03-08T09:43:22;100060.22;;;9.15;76.46
71151;BME280;59071;42.138;24.768;2024-03-08T09:45:49;100057.06;;;9.05;76.51
71151;BME280;59071;42.138;24.768;2024-03-08T09:48:17;100054.41;;;9.05;78.96
71151;BME280;59071;42.138;24.768;2024-03-08T09:50:44;100059.22;;;9.74;74.00
71151;BME280;59071;42.138;24.768;2024-03-08T09:53:11;100055.38;;;9.18;76.13
71151;BME280;59071;42.138;24.768;2024-03-08T09:55:37;100052.25;;;9.15;76.44
71151;BME280;59071;42.138;24.768;2024-03-08T09:58:06;100054.56;;;9.18;75.49
71151;BME280;59071;42.138;24.768;2024-03-08T10:00:52;100048.13;;;8.76;77.55
71151;BME280;59071;42.138;24.768;2024-03-08T10:03:19;100046.72;;;8.95;77.21
71151;BME280;59071;42.138;24.768;2024-03-08T10:05:44;100049.56;;;8.78;77.29
71151;BME280;59071;42.138;24.768;2024-03-08T10:08:10;100041.16;;;8.75;77.75
71151;BME280;59071;42.138;24.768;2024-03-08T10:10:39;100044.88;;;9.10;74.83
71151;BME280;59071;42.138;24.768;2024-03-08T10:13:08;100044.50;;;8.98;76.26
71151;BME280;59071;42.138;24.768;2024-03-08T10:15:34;100043.19;;;9.09;75.64
71151;BME280;59071;42.138;24.768;2024-03-08T10:18:00;100034.38;;;8.87;76.51
71151;BME280;59071;42.138;24.768;2024-03-08T10:20:27;100035.72;;;8.98;76.47
71151;BME280;59071;42.138;24.768;2024-03-08T10:22:59;100035.97;;;9.18;75.95
71151;BME280;59071;42.138;24.768;2024-03-08T10:25:24;100047.06;;;9.65;74.66
71151;BME280;59071;42.138;24.768;2024-03-08T10:27:49;100039.59;;;9.53;73.99
71151;BME280;59071;42.138;24.768;2024-03-08T10:30:16;100039.97;;;9.50;74.43
71151;BME280;59071;42.138;24.768;2024-03-08T10:32:47;100032.81;;;9.51;74.74
71151;BME280;59071;42.138;24.768;2024-03-08T10:35:12;100041.38;;;9.46;75.99
71151;BME280;59071;42.138;24.768;2024-03-08T10:37:48;100034.84;;;9.70;75.33
71151;BME280;59071;42.138;24.768;2024-03-08T10:40:18;100035.06;;;9.97;72.92
71151;BME280;59071;42.138;24.768;2024-03-08T10:42:55;100028.50;;;9.93;72.20
71151;BME280;59071;42.138;24.768;2024-03-08T10:45:40;100027.47;;;9.66;74.22
71151;BME280;59071;42.138;24.768;2024-03-08T10:51:04;100022.84;;;10.03;72.90
71151;BME280;59071;42.138;24.768;2024-03-08T10:53:30;100023.50;;;9.83;72.54
71151;BME280;59071;42.138;24.768;2024-03-08T10:55:57;100016.53;;;9.82;72.96
71151;BME280;59071;42.138;24.768;2024-03-08T10:58:24;100014.84;;;9.74;73.76
71151;BME280;59071;42.138;24.768;2024-03-08T11:00:53;99999.28;;;9.71;73.63
71151;BME280;59071;42.138;24.768;2024-03-08T11:06:07;100013.03;;;9.75;72.44
71151;BME280;59071;42.138;24.768;2024-03-08T11:08:36;100001.06;;;9.64;72.17
71151;BME280;59071;42.138;24.768;2024-03-08T11:11:01;100009.16;;;9.34;74.83
71151;BME280;59071;42.138;24.768;2024-03-08T11:16:12;100001.44;;;9.39;76.11
71151;BME280;59071;42.138;24.768;2024-03-08T11:18:38;100005.72;;;9.19;76.55
71151;BME280;59071;42.138;24.768;2024-03-08T11:21:12;100005.22;;;9.52;74.96
71151;BME280;59071;42.138;24.768;2024-03-08T11:23:38;100001.25;;;9.41;74.32
71151;BME280;59071;42.138;24.768;2024-03-08T11:26:24;99995.88;;;9.77;74.76
71151;BME280;59071;42.138;24.768;2024-03-08T11:28:49;99990.69;;;9.69;73.54
71151;BME280;59071;42.138;24.768;2024-03-08T11:33:46;100000.69;;;9.95;72.26
71151;BME280;59071;42.138;24.768;2024-03-08T11:36:20;99991.22;;;9.58;73.12
71151;BME280;59071;42.138;24.768;2024-03-08T11:38:48;99998.84;;;9.68;74.21
71151;BME280;59071;42.138;24.768;2024-03-08T11:41:19;99995.44;;;10.02;73.47
71151;BME280;59071;42.138;24.768;2024-03-08T11:43:46;99993.25;;;10.41;71.15
71151;BME280;59071;42.138;24.768;2024-03-08T11:46:12;99996.66;;;10.63;69.72
71151;BME280;59071;42.138;24.768;2024-03-08T11:48:39;99988.75;;;10.83;69.46
71151;BME280;59071;42.138;24.768;2024-03-08T11:51:07;99986.81;;;10.63;69.67
71151;BME280;59071;42.138;24.768;2024-03-08T11:53:33;99988.50;;;10.71;71.56
71151;BME280;59071;42.138;24.768;2024-03-08T11:56:09;99978.66;;;10.71;70.17
71151;BME280;59071;42.138;24.768;2024-03-08T11:58:36;99978.09;;;10.76;70.29
71151;BME280;59071;42.138;24.768;2024-03-08T12:01:09;99984.91;;;10.92;68.37
71151;BME280;59071;42.138;24.768;2024-03-08T12:03:38;99977.13;;;10.97;68.00
71151;BME280;59071;42.138;24.768;2024-03-08T12:06:04;99984.13;;;11.11;66.63
71151;BME280;59071;42.138;24.768;2024-03-08T12:08:32;99979.78;;;10.97;67.50
71151;BME280;59071;42.138;24.768;2024-03-08T12:10:57;99975.16;;;11.26;66.54
71151;BME280;59071;42.138;24.768;2024-03-08T12:13:31;99989.97;;;10.80;67.58
71151;BME280;59071;42.138;24.768;2024-03-08T12:16:02;99984.59;;;10.73;67.70
71151;BME280;59071;42.138;24.768;2024-03-08T12:18:33;99981.19;;;10.86;66.98
71151;BME280;59071;42.138;24.768;2024-03-08T12:21:09;99985.22;;;10.69;68.36
71151;BME280;59071;42.138;24.768;2024-03-08T12:23:36;99968.50;;;10.88;67.55
71151;BME280;59071;42.138;24.768;2024-03-08T12:28:40;99972.16;;;10.39;69.37
71151;BME280;59071;42.138;24.768;2024-03-08T12:31:07;99972.47;;;10.57;69.73
71151;BME280;59071;42.138;24.768;2024-03-08T12:33:54;99970.31;;;10.81;68.52
71151;BME280;59071;42.138;24.768;2024-03-08T12:36:21;99969.53;;;10.94;67.22
71151;BME280;59071;42.138;24.768;2024-03-08T12:38:47;99964.13;;;10.67;67.87
71151;BME280;59071;42.138;24.768;2024-03-08T12:41:19;99959.34;;;10.49;69.39
71151;BME280;59071;42.138;24.768;2024-03-08T12:43:45;99976.88;;;10.37;68.46
71151;BME280;59071;42.138;24.768;2024-03-08T12:46:17;99954.56;;;10.38;69.23
71151;BME280;59071;42.138;24.768;2024-03-08T12:48:43;99964.13;;;10.67;68.37
71151;BME280;59071;42.138;24.768;2024-03-08T12:51:18;99947.09;;;10.62;67.27
71151;BME280;59071;42.138;24.768;2024-03-08T12:53:44;99950.09;;;11.00;66.08
71151;BME280;59071;42.138;24.768;2024-03-08T12:56:11;99948.88;;;11.09;66.91
71151;BME280;59071;42.138;24.768;2024-03-08T12:58:37;99953.00;;;11.12;66.98
71151;BME280;59071;42.138;24.768;2024-03-08T13:01:04;99951.34;;;11.11;65.21
71151;BME280;59071;42.138;24.768;2024-03-08T13:03:36;99966.69;;;11.02;65.01